Página principal
METAR-TAF:

METAR-TAF

Aeroportos :

Aeroporto de N'djili

Kinshasa, Congo

latitude: 04-23S, longitude: 015-26E, altura: 309 m

Observação actual do tempo

O boletim foi feito há 45 minutos, às 12:00 UTC
Vento 10 kt de oeste
Temperatura 29°C
Humidade 52%
Pressão 1012 hPa
Visibilidade: 6000 m
Nuvens dispersasa uma altura de 2200 ft

METAR: FZAA 181200Z 28010KT 6000 SCT022 29/18 Q1012 NOSIG

Hora: 13:45 (12:45 UTC)

Previsão

O boletim foi feito há 7 horas e 45 minutos, às 05:00 UTC
Previsão válida de 18 às 06 UTC a 19 às 12 UTC
Vento 4 kt de su-sudoeste
Visibilidade: 4000 m
Nuvens fragmentadasa uma altura de 1400 ft
neblina
A partir de 18 às 0900 UTC
Vento 10 kt de oeste
Visibilidade: 8000 m
Poucas nuvensa uma altura de 1800 ft
Probabilidade 30%
de 19 às 06 UTC a 19 às 09 UTC
Vento 2 kt com direcção variável
Visibilidade: 4000 m
neblina

TAF: FZAA 180500Z 1806/1912 20004KT 4000 BR BKN014 FM180900 28010KT 8000 NSW FEW018 PROB30 1906/1909 VRB02KT 4000 BR

Observações e previsões do tempo de mais de 4000 aeroportos (mensagens METAR e TAF).

As estações disponíveis são os pontos amarelos e vermelhos sobre o mapa.

Mova o rato sobre o mapa para ver o nome da estação.

Depois clique no ponto para visualizar as observações e previsões meteorológicas.

Para alterar o mapa : clique nos botões verdes com uma cruz preta para aumentar o zoom; no botão verde com uma pitada de zoom; ou nas setas verdes para mapas adjacentes.


METAR-TAF: